sensor_id;sensor_type;location;lat;lon;timestamp;temperature;humidity
46356;DHT22;32066;49.474;11.106;2023-07-29T00:01:36;19.90;99.90
46356;DHT22;32066;49.474;11.106;2023-07-29T00:04:06;20.00;99.90
46356;DHT22;32066;49.474;11.106;2023-07-29T00:06:35;20.00;99.90
46356;DHT22;32066;49.474;11.106;2023-07-29T00:09:04;20.00;99.90
46356;DHT22;32066;49.474;11.106;2023-07-29T00:11:32;19.90;99.90
46356;DHT22;32066;49.474;11.106;2023-07-29T00:14:01;19.80;99.90
46356;DHT22;32066;49.474;11.106;2023-07-29T00:16:30;19.90;99.90
46356;DHT22;32066;49.474;11.106;2023-07-29T00:19:02;19.90;99.90
46356;DHT22;32066;49.474;11.106;2023-07-29T00:21:31;19.90;99.90
46356;DHT22;32066;49.474;11.106;2023-07-29T00:24:00;19.90;99.90
46356;DHT22;32066;49.474;11.106;2023-07-29T00:26:29;19.90;99.90
46356;DHT22;32066;49.474;11.106;2023-07-29T00:28:57;19.80;99.90
46356;DHT22;32066;49.474;11.106;2023-07-29T00:31:27;19.90;99.90
46356;DHT22;32066;49.474;11.106;2023-07-29T00:33:57;19.90;99.90
46356;DHT22;32066;49.474;11.106;2023-07-29T00:36:28;19.90;99.90
46356;DHT22;32066;49.474;11.106;2023-07-29T00:38:56;19.80;99.90
46356;DHT22;32066;49.474;11.106;2023-07-29T00:41:26;19.80;99.90
46356;DHT22;32066;49.474;11.106;2023-07-29T00:43:54;19.80;99.90
46356;DHT22;32066;49.474;11.106;2023-07-29T00:46:23;19.80;99.90
46356;DHT22;32066;49.474;11.106;2023-07-29T00:48:53;19.80;99.90
46356;DHT22;32066;49.474;11.106;2023-07-29T00:51:23;19.70;99.90
46356;DHT22;32066;49.474;11.106;2023-07-29T00:53:54;19.60;99.90
46356;DHT22;32066;49.474;11.106;2023-07-29T00:56:23;19.60;99.90
46356;DHT22;32066;49.474;11.106;2023-07-29T00:58:52;19.60;99.90
46356;DHT22;32066;49.474;11.106;2023-07-29T01:01:24;19.60;99.90
46356;DHT22;32066;49.474;11.106;2023-07-29T01:03:53;19.60;99.90
46356;DHT22;32066;49.474;11.106;2023-07-29T01:06:27;19.60;99.90
46356;DHT22;32066;49.474;11.106;2023-07-29T01:09:03;19.60;99.90
46356;DHT22;32066;49.474;11.106;2023-07-29T01:11:38;19.50;99.90
46356;DHT22;32066;49.474;11.106;2023-07-29T01:14:17;19.50;99.90
46356;DHT22;32066;49.474;11.106;2023-07-29T01:16:52;19.50;99.90
46356;DHT22;32066;49.474;11.106;2023-07-29T01:19:42;19.50;99.90
46356;DHT22;32066;49.474;11.106;2023-07-29T01:22:16;19.50;99.90
46356;DHT22;32066;49.474;11.106;2023-07-29T01:24:49;19.50;99.90
46356;DHT22;32066;49.474;11.106;2023-07-29T01:27:17;19.50;99.90
46356;DHT22;32066;49.474;11.106;2023-07-29T01:29:46;19.50;99.90
46356;DHT22;32066;49.474;11.106;2023-07-29T01:32:19;19.50;99.90
46356;DHT22;32066;49.474;11.106;2023-07-29T01:34:49;19.50;99.90
46356;DHT22;32066;49.474;11.106;2023-07-29T01:37:24;19.50;99.90
46356;DHT22;32066;49.474;11.106;2023-07-29T01:39:58;19.50;99.90
46356;DHT22;32066;49.474;11.106;2023-07-29T01:42:29;19.50;99.90
46356;DHT22;32066;49.474;11.106;2023-07-29T01:45:00;19.50;99.90
46356;DHT22;32066;49.474;11.106;2023-07-29T01:47:28;19.50;99.90
46356;DHT22;32066;49.474;11.106;2023-07-29T01:49:57;19.50;99.90
46356;DHT22;32066;49.474;11.106;2023-07-29T01:52:26;19.50;99.90
46356;DHT22;32066;49.474;11.106;2023-07-29T01:54:57;19.50;99.90
46356;DHT22;32066;49.474;11.106;2023-07-29T01:57:26;19.40;99.90
46356;DHT22;32066;49.474;11.106;2023-07-29T01:59:55;19.40;99.90
46356;DHT22;32066;49.474;11.106;2023-07-29T02:02:23;19.40;99.90
46356;DHT22;32066;49.474;11.106;2023-07-29T02:04:52;19.40;99.90
46356;DHT22;32066;49.474;11.106;2023-07-29T02:07:21;19.40;99.90
46356;DHT22;32066;49.474;11.106;2023-07-29T02:09:52;19.40;99.90
46356;DHT22;32066;49.474;11.106;2023-07-29T02:12:24;19.30;99.90
46356;DHT22;32066;49.474;11.106;2023-07-29T02:14:52;19.30;99.90
46356;DHT22;32066;49.474;11.106;2023-07-29T02:17:21;19.30;99.90
46356;DHT22;32066;49.474;11.106;2023-07-29T02:19:50;19.30;99.90
46356;DHT22;32066;49.474;11.106;2023-07-29T02:22:19;19.30;99.90
46356;DHT22;32066;49.474;11.106;2023-07-29T02:24:47;19.30;99.90
46356;DHT22;32066;49.474;11.106;2023-07-29T02:27:16;19.30;99.90
46356;DHT22;32066;49.474;11.106;2023-07-29T02:29:47;19.30;99.90
46356;DHT22;32066;49.474;11.106;2023-07-29T02:32:16;19.20;99.90
46356;DHT22;32066;49.474;11.106;2023-07-29T02:34:45;19.30;99.90
46356;DHT22;32066;49.474;11.106;2023-07-29T02:37:16;19.20;99.90
46356;DHT22;32066;49.474;11.106;2023-07-29T02:39:46;19.20;99.90
46356;DHT22;32066;49.474;11.106;2023-07-29T02:42:14;19.20;99.90
46356;DHT22;32066;49.474;11.106;2023-07-29T02:44:43;19.20;99.90
46356;DHT22;32066;49.474;11.106;2023-07-29T02:47:14;19.20;99.90
46356;DHT22;32066;49.474;11.106;2023-07-29T02:49:43;19.10;99.90
46356;DHT22;32066;49.474;11.106;2023-07-29T02:52:11;19.10;99.90
46356;DHT22;32066;49.474;11.106;2023-07-29T02:54:40;19.10;99.90
46356;DHT22;32066;49.474;11.106;2023-07-29T02:57:09;19.10;99.90
46356;DHT22;32066;49.474;11.106;2023-07-29T02:59:37;19.00;99.90
46356;DHT22;32066;49.474;11.106;2023-07-29T03:02:06;19.00;99.90
46356;DHT22;32066;49.474;11.106;2023-07-29T03:04:37;19.10;99.90
46356;DHT22;32066;49.474;11.106;2023-07-29T03:07:06;19.00;99.90
46356;DHT22;32066;49.474;11.106;2023-07-29T03:09:36;19.00;99.90
46356;DHT22;32066;49.474;11.106;2023-07-29T03:12:06;19.00;99.90
46356;DHT22;32066;49.474;11.106;2023-07-29T03:14:34;19.00;99.90
46356;DHT22;32066;49.474;11.106;2023-07-29T03:17:03;18.90;99.90
46356;DHT22;32066;49.474;11.106;2023-07-29T03:19:32;18.90;99.90
46356;DHT22;32066;49.474;11.106;2023-07-29T03:22:04;18.90;99.90
46356;DHT22;32066;49.474;11.106;2023-07-29T03:24:32;18.80;99.90
46356;DHT22;32066;49.474;11.106;2023-07-29T03:27:01;18.80;99.90
46356;DHT22;32066;49.474;11.106;2023-07-29T03:29:31;18.80;99.90
46356;DHT22;32066;49.474;11.106;2023-07-29T03:31:59;18.80;99.90
46356;DHT22;32066;49.474;11.106;2023-07-29T03:34:28;18.80;99.90
46356;DHT22;32066;49.474;11.106;2023-07-29T03:36:59;18.80;99.90
46356;DHT22;32066;49.474;11.106;2023-07-29T03:39:30;18.80;99.90
46356;DHT22;32066;49.474;11.106;2023-07-29T03:41:59;18.80;99.90
46356;DHT22;32066;49.474;11.106;2023-07-29T03:44:28;18.90;99.90
46356;DHT22;32066;49.474;11.106;2023-07-29T03:46:57;18.90;99.90
46356;DHT22;32066;49.474;11.106;2023-07-29T03:49:26;18.80;99.90
46356;DHT22;32066;49.474;11.106;2023-07-29T03:51:54;18.90;99.90
46356;DHT22;32066;49.474;11.106;2023-07-29T03:54:23;18.80;99.90
46356;DHT22;32066;49.474;11.106;2023-07-29T03:56:54;18.80;99.90
46356;DHT22;32066;49.474;11.106;2023-07-29T03:59:23;18.80;99.90
46356;DHT22;32066;49.474;11.106;2023-07-29T04:01:51;18.90;99.90
46356;DHT22;32066;49.474;11.106;2023-07-29T04:04:20;18.90;99.90
46356;DHT22;32066;49.474;11.106;2023-07-29T04:06:49;18.90;99.90
46356;DHT22;32066;49.474;11.106;2023-07-29T04:09:18;18.90;99.90
46356;DHT22;32066;49.474;11.106;2023-07-29T04:11:46;18.90;99.90
46356;DHT22;32066;49.474;11.106;2023-07-29T04:14:18;18.90;99.90
46356;DHT22;32066;49.474;11.106;2023-07-29T04:16:46;19.00;99.90
46356;DHT22;32066;49.474;11.106;2023-07-29T04:19:15;19.00;99.90
46356;DHT22;32066;49.474;11.106;2023-07-29T04:21:44;19.00;99.90
46356;DHT22;32066;49.474;11.106;2023-07-29T04:24:12;19.00;99.90
46356;DHT22;32066;49.474;11.106;2023-07-29T04:26:41;19.00;99.90
46356;DHT22;32066;49.474;11.106;2023-07-29T04:29:10;19.00;99.90
46356;DHT22;32066;49.474;11.106;2023-07-29T04:31:41;19.10;99.90
46356;DHT22;32066;49.474;11.106;2023-07-29T04:34:10;19.10;99.90
46356;DHT22;32066;49.474;11.106;2023-07-29T04:36:39;19.10;99.90
46356;DHT22;32066;49.474;11.106;2023-07-29T04:39:07;19.10;99.90
46356;DHT22;32066;49.474;11.106;2023-07-29T04:41:36;19.20;99.90
46356;DHT22;32066;49.474;11.106;2023-07-29T04:44:05;19.30;99.90
46356;DHT22;32066;49.474;11.106;2023-07-29T04:46:33;19.30;99.90
46356;DHT22;32066;49.474;11.106;2023-07-29T04:49:05;19.30;99.90
46356;DHT22;32066;49.474;11.106;2023-07-29T04:51:33;19.40;99.90
46356;DHT22;32066;49.474;11.106;2023-07-29T04:54:03;19.40;99.90
46356;DHT22;32066;49.474;11.106;2023-07-29T04:56:31;19.40;99.90
46356;DHT22;32066;49.474;11.106;2023-07-29T04:59:00;19.50;99.90
46356;DHT22;32066;49.474;11.106;2023-07-29T05:01:28;19.50;99.90
46356;DHT22;32066;49.474;11.106;2023-07-29T05:03:57;19.50;99.90
46356;DHT22;32066;49.474;11.106;2023-07-29T05:06:28;19.60;99.90
46356;DHT22;32066;49.474;11.106;2023-07-29T05:08:57;19.60;99.90
46356;DHT22;32066;49.474;11.106;2023-07-29T05:11:26;19.70;99.90
46356;DHT22;32066;49.474;11.106;2023-07-29T05:13:55;19.70;99.90
46356;DHT22;32066;49.474;11.106;2023-07-29T05:16:23;19.70;99.90
46356;DHT22;32066;49.474;11.106;2023-07-29T05:18:52;19.70;99.90
46356;DHT22;32066;49.474;11.106;2023-07-29T05:21:21;19.70;99.90
46356;DHT22;32066;49.474;11.106;2023-07-29T05:23:52;19.70;99.90
46356;DHT22;32066;49.474;11.106;2023-07-29T05:26:21;19.70;99.90
46356;DHT22;32066;49.474;11.106;2023-07-29T05:28:49;19.80;99.90
46356;DHT22;32066;49.474;11.106;2023-07-29T05:31:18;19.80;99.90
46356;DHT22;32066;49.474;11.106;2023-07-29T05:33:47;19.80;99.90
46356;DHT22;32066;49.474;11.106;2023-07-29T05:36:16;19.80;99.90
46356;DHT22;32066;49.474;11.106;2023-07-29T05:38:44;19.80;99.90
46356;DHT22;32066;49.474;11.106;2023-07-29T05:41:15;19.80;99.90
46356;DHT22;32066;49.474;11.106;2023-07-29T05:43:44;19.80;99.90
46356;DHT22;32066;49.474;11.106;2023-07-29T05:46:13;19.80;99.90
46356;DHT22;32066;49.474;11.106;2023-07-29T05:48:41;19.80;99.90
46356;DHT22;32066;49.474;11.106;2023-07-29T05:51:10;19.80;99.90
46356;DHT22;32066;49.474;11.106;2023-07-29T05:53:39;19.80;99.90
46356;DHT22;32066;49.474;11.106;2023-07-29T05:56:08;19.80;99.90
46356;DHT22;32066;49.474;11.106;2023-07-29T05:58:39;19.80;99.90
46356;DHT22;32066;49.474;11.106;2023-07-29T06:01:08;19.80;99.90
46356;DHT22;32066;49.474;11.106;2023-07-29T06:03:37;19.80;99.90
46356;DHT22;32066;49.474;11.106;2023-07-29T06:06:05;19.80;99.90
46356;DHT22;32066;49.474;11.106;2023-07-29T06:08:34;19.80;99.90
46356;DHT22;32066;49.474;11.106;2023-07-29T06:11:03;19.80;99.90
46356;DHT22;32066;49.474;11.106;2023-07-29T06:13:32;19.90;99.90
46356;DHT22;32066;49.474;11.106;2023-07-29T06:16:03;19.80;99.90
46356;DHT22;32066;49.474;11.106;2023-07-29T06:18:32;19.80;99.90
46356;DHT22;32066;49.474;11.106;2023-07-29T06:21:00;19.80;99.90
46356;DHT22;32066;49.474;11.106;2023-07-29T06:23:33;19.50;99.90
46356;DHT22;32066;49.474;11.106;2023-07-29T06:26:10;19.60;99.90
46356;DHT22;32066;49.474;11.106;2023-07-29T06:28:59;19.60;99.90
46356;DHT22;32066;49.474;11.106;2023-07-29T06:31:37;19.60;99.90
46356;DHT22;32066;49.474;11.106;2023-07-29T06:34:06;19.60;99.90
46356;DHT22;32066;49.474;11.106;2023-07-29T06:36:34;19.50;99.90
46356;DHT22;32066;49.474;11.106;2023-07-29T06:39:03;19.60;99.90
46356;DHT22;32066;49.474;11.106;2023-07-29T06:41:32;19.50;99.90
46356;DHT22;32066;49.474;11.106;2023-07-29T06:44:04;19.50;99.90
46356;DHT22;32066;49.474;11.106;2023-07-29T06:46:32;19.60;99.90
46356;DHT22;32066;49.474;11.106;2023-07-29T06:49:04;19.60;99.90
46356;DHT22;32066;49.474;11.106;2023-07-29T06:51:33;19.60;99.90
46356;DHT22;32066;49.474;11.106;2023-07-29T06:54:02;19.50;99.90
46356;DHT22;32066;49.474;11.106;2023-07-29T06:56:31;19.50;99.90
46356;DHT22;32066;49.474;11.106;2023-07-29T06:58:59;19.40;99.90
46356;DHT22;32066;49.474;11.106;2023-07-29T07:01:28;19.30;99.90
46356;DHT22;32066;49.474;11.106;2023-07-29T07:03:57;19.30;99.90
46356;DHT22;32066;49.474;11.106;2023-07-29T07:06:28;19.30;99.90
46356;DHT22;32066;49.474;11.106;2023-07-29T07:08:56;19.30;99.90
46356;DHT22;32066;49.474;11.106;2023-07-29T07:11:25;19.10;99.90
46356;DHT22;32066;49.474;11.106;2023-07-29T07:13:54;19.10;99.90
46356;DHT22;32066;49.474;11.106;2023-07-29T07:16:22;19.30;99.90
46356;DHT22;32066;49.474;11.106;2023-07-29T07:18:51;19.20;99.90
46356;DHT22;32066;49.474;11.106;2023-07-29T07:21:20;19.20;99.90
46356;DHT22;32066;49.474;11.106;2023-07-29T07:23:52;19.30;99.90
46356;DHT22;32066;49.474;11.106;2023-07-29T07:26:20;19.30;99.90
46356;DHT22;32066;49.474;11.106;2023-07-29T07:28:49;19.40;99.90
46356;DHT22;32066;49.474;11.106;2023-07-29T07:31:18;19.40;99.90
46356;DHT22;32066;49.474;11.106;2023-07-29T07:33:46;19.50;99.90
46356;DHT22;32066;49.474;11.106;2023-07-29T07:36:15;19.50;99.90
46356;DHT22;32066;49.474;11.106;2023-07-29T07:38:44;19.50;99.90
46356;DHT22;32066;49.474;11.106;2023-07-29T07:41:15;19.50;99.90
46356;DHT22;32066;49.474;11.106;2023-07-29T07:43:43;19.60;99.90
46356;DHT22;32066;49.474;11.106;2023-07-29T07:46:12;19.60;99.90
46356;DHT22;32066;49.474;11.106;2023-07-29T07:48:41;19.70;99.90
46356;DHT22;32066;49.474;11.106;2023-07-29T07:51:13;19.70;99.90
46356;DHT22;32066;49.474;11.106;2023-07-29T07:53:41;19.70;99.90
46356;DHT22;32066;49.474;11.106;2023-07-29T07:56:10;19.80;99.90
46356;DHT22;32066;49.474;11.106;2023-07-29T07:58:41;19.70;99.90
46356;DHT22;32066;49.474;11.106;2023-07-29T08:01:10;19.80;99.90
46356;DHT22;32066;49.474;11.106;2023-07-29T08:03:40;19.70;99.90
46356;DHT22;32066;49.474;11.106;2023-07-29T08:06:08;19.70;99.90
46356;DHT22;32066;49.474;11.106;2023-07-29T08:08:37;19.70;99.90
46356;DHT22;32066;49.474;11.106;2023-07-29T08:11:06;19.70;99.90
46356;DHT22;32066;49.474;11.106;2023-07-29T08:13:34;19.60;99.90
46356;DHT22;32066;49.474;11.106;2023-07-29T08:16:05;19.60;99.90
46356;DHT22;32066;49.474;11.106;2023-07-29T08:18:34;19.50;99.90
46356;DHT22;32066;49.474;11.106;2023-07-29T08:21:03;19.50;99.90
46356;DHT22;32066;49.474;11.106;2023-07-29T08:23:33;19.50;99.90
46356;DHT22;32066;49.474;11.106;2023-07-29T08:26:03;19.40;99.90
46356;DHT22;32066;49.474;11.106;2023-07-29T08:28:34;19.40;99.90
46356;DHT22;32066;49.474;11.106;2023-07-29T08:31:07;19.40;99.90
46356;DHT22;32066;49.474;11.106;2023-07-29T08:33:36;19.40;99.90
46356;DHT22;32066;49.474;11.106;2023-07-29T08:36:05;19.40;99.90
46356;DHT22;32066;49.474;11.106;2023-07-29T08:38:33;19.30;99.90
46356;DHT22;32066;49.474;11.106;2023-07-29T08:41:10;19.30;99.90
46356;DHT22;32066;49.474;11.106;2023-07-29T08:43:47;19.30;99.90
46356;DHT22;32066;49.474;11.106;2023-07-29T08:46:21;19.20;99.90
46356;DHT22;32066;49.474;11.106;2023-07-29T08:48:51;19.20;99.90
46356;DHT22;32066;49.474;11.106;2023-07-29T08:51:19;19.30;99.90
46356;DHT22;32066;49.474;11.106;2023-07-29T08:53:50;19.30;99.90
46356;DHT22;32066;49.474;11.106;2023-07-29T08:56:18;19.40;99.90
46356;DHT22;32066;49.474;11.106;2023-07-29T08:58:48;19.30;99.90
46356;DHT22;32066;49.474;11.106;2023-07-29T09:01:17;19.40;99.90
46356;DHT22;32066;49.474;11.106;2023-07-29T09:03:48;19.40;99.90
46356;DHT22;32066;49.474;11.106;2023-07-29T09:06:17;19.40;99.90
46356;DHT22;32066;49.474;11.106;2023-07-29T09:08:54;19.40;99.90
46356;DHT22;32066;49.474;11.106;2023-07-29T09:11:23;19.40;99.90
46356;DHT22;32066;49.474;11.106;2023-07-29T09:13:52;19.50;99.90
46356;DHT22;32066;49.474;11.106;2023-07-29T09:16:21;19.50;99.90
46356;DHT22;32066;49.474;11.106;2023-07-29T09:18:53;19.50;99.90
46356;DHT22;32066;49.474;11.106;2023-07-29T09:21:23;19.50;99.90
46356;DHT22;32066;49.474;11.106;2023-07-29T09:23:54;19.50;99.90
46356;DHT22;32066;49.474;11.106;2023-07-29T09:26:24;19.60;99.90
46356;DHT22;32066;49.474;11.106;2023-07-29T09:28:54;19.60;99.90
46356;DHT22;32066;49.474;11.106;2023-07-29T09:31:25;19.60;99.90
46356;DHT22;32066;49.474;11.106;2023-07-29T09:33:58;19.60;99.90
46356;DHT22;32066;49.474;11.106;2023-07-29T09:36:31;19.60;99.90
46356;DHT22;32066;49.474;11.106;2023-07-29T09:39:01;19.60;99.90
46356;DHT22;32066;49.474;11.106;2023-07-29T09:41:30;19.60;99.90
46356;DHT22;32066;49.474;11.106;2023-07-29T09:44:00;19.60;99.90
46356;DHT22;32066;49.474;11.106;2023-07-29T09:46:33;19.70;99.90
46356;DHT22;32066;49.474;11.106;2023-07-29T09:49:05;19.70;99.90
46356;DHT22;32066;49.474;11.106;2023-07-29T09:51:38;19.70;99.90
46356;DHT22;32066;49.474;11.106;2023-07-29T09:54:07;19.70;99.90
46356;DHT22;32066;49.474;11.106;2023-07-29T09:56:39;19.70;99.90
46356;DHT22;32066;49.474;11.106;2023-07-29T09:59:10;19.70;99.90
46356;DHT22;32066;49.474;11.106;2023-07-29T10:01:39;19.70;99.90
46356;DHT22;32066;49.474;11.106;2023-07-29T10:04:13;19.80;99.90
46356;DHT22;32066;49.474;11.106;2023-07-29T10:06:43;19.90;99.90
46356;DHT22;32066;49.474;11.106;2023-07-29T10:09:12;19.90;99.90
46356;DHT22;32066;49.474;11.106;2023-07-29T10:11:42;20.10;99.90
46356;DHT22;32066;49.474;11.106;2023-07-29T10:14:11;20.10;99.90
46356;DHT22;32066;49.474;11.106;2023-07-29T10:16:40;20.20;99.90
46356;DHT22;32066;49.474;11.106;2023-07-29T10:19:14;20.30;99.90
46356;DHT22;32066;49.474;11.106;2023-07-29T10:21:44;20.40;99.90
46356;DHT22;32066;49.474;11.106;2023-07-29T10:24:19;20.50;99.90
46356;DHT22;32066;49.474;11.106;2023-07-29T10:26:57;20.60;99.90
46356;DHT22;32066;49.474;11.106;2023-07-29T10:29:30;20.60;99.90
46356;DHT22;32066;49.474;11.106;2023-07-29T10:32:01;20.70;99.90
46356;DHT22;32066;49.474;11.106;2023-07-29T10:34:33;20.80;99.90
46356;DHT22;32066;49.474;11.106;2023-07-29T10:37:03;20.80;99.90
46356;DHT22;32066;49.474;11.106;2023-07-29T10:39:37;20.90;99.90
46356;DHT22;32066;49.474;11.106;2023-07-29T10:42:08;21.00;99.90
46356;DHT22;32066;49.474;11.106;2023-07-29T10:44:46;21.10;99.90
46356;DHT22;32066;49.474;11.106;2023-07-29T10:47:16;21.00;99.90
46356;DHT22;32066;49.474;11.106;2023-07-29T10:49:51;21.00;99.90
46356;DHT22;32066;49.474;11.106;2023-07-29T10:52:31;21.10;99.90
46356;DHT22;32066;49.474;11.106;2023-07-29T10:55:00;21.20;99.90
46356;DHT22;32066;49.474;11.106;2023-07-29T10:57:33;21.60;99.90
46356;DHT22;32066;49.474;11.106;2023-07-29T11:00:03;21.60;99.90
46356;DHT22;32066;49.474;11.106;2023-07-29T11:02:37;21.70;99.90
46356;DHT22;32066;49.474;11.106;2023-07-29T11:05:17;21.80;99.90
46356;DHT22;32066;49.474;11.106;2023-07-29T11:07:46;21.80;99.90
46356;DHT22;32066;49.474;11.106;2023-07-29T11:10:16;21.90;99.90
46356;DHT22;32066;49.474;11.106;2023-07-29T11:12:45;22.00;99.90
46356;DHT22;32066;49.474;11.106;2023-07-29T11:15:21;22.20;99.90
46356;DHT22;32066;49.474;11.106;2023-07-29T11:17:52;22.20;99.90
46356;DHT22;32066;49.474;11.106;2023-07-29T11:20:24;22.30;99.90
46356;DHT22;32066;49.474;11.106;2023-07-29T11:22:53;22.30;99.90
46356;DHT22;32066;49.474;11.106;2023-07-29T11:25:23;22.30;99.90
46356;DHT22;32066;49.474;11.106;2023-07-29T11:27:54;22.30;99.90
46356;DHT22;32066;49.474;11.106;2023-07-29T11:30:23;22.30;99.90
46356;DHT22;32066;49.474;11.106;2023-07-29T11:32:54;22.40;99.90
46356;DHT22;32066;49.474;11.106;2023-07-29T11:35:26;22.30;99.90
46356;DHT22;32066;49.474;11.106;2023-07-29T11:37:55;22.30;99.90
46356;DHT22;32066;49.474;11.106;2023-07-29T11:40:24;22.30;99.90
46356;DHT22;32066;49.474;11.106;2023-07-29T11:42:53;22.20;99.90
46356;DHT22;32066;49.474;11.106;2023-07-29T11:45:23;22.30;99.90
46356;DHT22;32066;49.474;11.106;2023-07-29T11:47:52;22.50;99.90
46356;DHT22;32066;49.474;11.106;2023-07-29T11:50:20;22.60;99.90
46356;DHT22;32066;49.474;11.106;2023-07-29T11:52:52;22.60;99.90
46356;DHT22;32066;49.474;11.106;2023-07-29T11:55:21;22.60;99.90
46356;DHT22;32066;49.474;11.106;2023-07-29T11:57:51;22.60;99.90
46356;DHT22;32066;49.474;11.106;2023-07-29T12:00:21;22.60;99.90
46356;DHT22;32066;49.474;11.106;2023-07-29T12:02:49;22.70;99.90
46356;DHT22;32066;49.474;11.106;2023-07-29T12:05:20;22.70;99.90
46356;DHT22;32066;49.474;11.106;2023-07-29T12:07:52;22.80;99.90
46356;DHT22;32066;49.474;11.106;2023-07-29T12:10:21;22.90;99.90
46356;DHT22;32066;49.474;11.106;2023-07-29T12:12:50;22.90;99.90
46356;DHT22;32066;49.474;11.106;2023-07-29T12:15:25;22.90;99.90
46356;DHT22;32066;49.474;11.106;2023-07-29T12:17:55;22.90;99.90
46356;DHT22;32066;49.474;11.106;2023-07-29T12:20:25;23.00;99.90
46356;DHT22;32066;49.474;11.106;2023-07-29T12:22:58;23.10;99.90
46356;DHT22;32066;49.474;11.106;2023-07-29T12:25:29;23.10;99.90
46356;DHT22;32066;49.474;11.106;2023-07-29T12:28:02;23.20;99.90
46356;DHT22;32066;49.474;11.106;2023-07-29T12:30:32;23.30;99.90
46356;DHT22;32066;49.474;11.106;2023-07-29T12:33:00;23.30;99.90
46356;DHT22;32066;49.474;11.106;2023-07-29T12:35:36;23.30;99.90
46356;DHT22;32066;49.474;11.106;2023-07-29T12:38:07;23.40;99.90
46356;DHT22;32066;49.474;11.106;2023-07-29T12:40:38;23.50;99.90
46356;DHT22;32066;49.474;11.106;2023-07-29T12:43:08;23.40;99.90
46356;DHT22;32066;49.474;11.106;2023-07-29T12:45:36;23.40;99.90
46356;DHT22;32066;49.474;11.106;2023-07-29T12:48:05;23.40;99.90
46356;DHT22;32066;49.474;11.106;2023-07-29T12:50:34;23.50;99.90
46356;DHT22;32066;49.474;11.106;2023-07-29T12:53:04;23.50;99.90
46356;DHT22;32066;49.474;11.106;2023-07-29T12:55:35;23.50;99.90
46356;DHT22;32066;49.474;11.106;2023-07-29T12:58:04;23.70;99.90
46356;DHT22;32066;49.474;11.106;2023-07-29T13:00:33;23.80;99.50
46356;DHT22;32066;49.474;11.106;2023-07-29T13:03:02;23.90;99.00
46356;DHT22;32066;49.474;11.106;2023-07-29T13:05:31;23.90;98.70
46356;DHT22;32066;49.474;11.106;2023-07-29T13:08:00;24.00;99.00
46356;DHT22;32066;49.474;11.106;2023-07-29T13:10:28;24.10;98.80
46356;DHT22;32066;49.474;11.106;2023-07-29T13:12:59;24.20;98.60
46356;DHT22;32066;49.474;11.106;2023-07-29T13:15:28;24.30;98.50
46356;DHT22;32066;49.474;11.106;2023-07-29T13:17:57;24.30;97.90
46356;DHT22;32066;49.474;11.106;2023-07-29T13:20:25;24.40;96.80
46356;DHT22;32066;49.474;11.106;2023-07-29T13:22:55;24.50;97.40
46356;DHT22;32066;49.474;11.106;2023-07-29T13:25:23;24.50;97.50
46356;DHT22;32066;49.474;11.106;2023-07-29T13:27:52;24.60;97.60
46356;DHT22;32066;49.474;11.106;2023-07-29T13:30:23;24.70;97.20
46356;DHT22;32066;49.474;11.106;2023-07-29T13:32:52;24.60;96.60
46356;DHT22;32066;49.474;11.106;2023-07-29T13:35:20;24.60;96.70
46356;DHT22;32066;49.474;11.106;2023-07-29T13:37:49;24.60;96.80
46356;DHT22;32066;49.474;11.106;2023-07-29T13:40:18;24.70;96.40
46356;DHT22;32066;49.474;11.106;2023-07-29T13:42:46;24.80;96.10
46356;DHT22;32066;49.474;11.106;2023-07-29T13:45:15;24.90;95.90
46356;DHT22;32066;49.474;11.106;2023-07-29T13:47:46;25.00;95.70
46356;DHT22;32066;49.474;11.106;2023-07-29T13:50:16;25.10;95.30
46356;DHT22;32066;49.474;11.106;2023-07-29T13:52:44;25.20;95.30
46356;DHT22;32066;49.474;11.106;2023-07-29T13:55:13;25.30;94.90
46356;DHT22;32066;49.474;11.106;2023-07-29T13:57:42;25.30;95.00
46356;DHT22;32066;49.474;11.106;2023-07-29T14:00:11;25.30;94.70
46356;DHT22;32066;49.474;11.106;2023-07-29T14:02:41;25.30;95.10
46356;DHT22;32066;49.474;11.106;2023-07-29T14:05:12;25.30;95.00
46356;DHT22;32066;49.474;11.106;2023-07-29T14:07:41;25.20;95.40
46356;DHT22;32066;49.474;11.106;2023-07-29T14:10:09;25.20;95.50
46356;DHT22;32066;49.474;11.106;2023-07-29T14:12:38;25.30;95.30
46356;DHT22;32066;49.474;11.106;2023-07-29T14:15:08;25.30;95.30
46356;DHT22;32066;49.474;11.106;2023-07-29T14:17:37;25.30;94.70
46356;DHT22;32066;49.474;11.106;2023-07-29T14:20:07;25.40;94.20
46356;DHT22;32066;49.474;11.106;2023-07-29T14:22:38;25.30;94.20
46356;DHT22;32066;49.474;11.106;2023-07-29T14:25:08;25.50;94.60
46356;DHT22;32066;49.474;11.106;2023-07-29T14:27:36;25.40;94.00
46356;DHT22;32066;49.474;11.106;2023-07-29T14:30:06;25.40;93.90
46356;DHT22;32066;49.474;11.106;2023-07-29T14:32:35;25.30;93.40
46356;DHT22;32066;49.474;11.106;2023-07-29T14:35:04;25.30;93.40
46356;DHT22;32066;49.474;11.106;2023-07-29T14:37:33;25.30;93.30
46356;DHT22;32066;49.474;11.106;2023-07-29T14:40:07;25.30;93.00
46356;DHT22;32066;49.474;11.106;2023-07-29T14:42:35;25.20;92.70
46356;DHT22;32066;49.474;11.106;2023-07-29T14:45:05;25.20;92.80
46356;DHT22;32066;49.474;11.106;2023-07-29T14:47:34;25.30;92.90
46356;DHT22;32066;49.474;11.106;2023-07-29T14:50:04;25.40;92.30
46356;DHT22;32066;49.474;11.106;2023-07-29T14:52:32;25.50;92.60
46356;DHT22;32066;49.474;11.106;2023-07-29T14:55:01;25.50;92.60
46356;DHT22;32066;49.474;11.106;2023-07-29T14:57:32;25.70;92.60
46356;DHT22;32066;49.474;11.106;2023-07-29T15:00:01;25.90;92.30
46356;DHT22;32066;49.474;11.106;2023-07-29T15:02:31;25.90;91.90
46356;DHT22;32066;49.474;11.106;2023-07-29T15:05:00;25.90;91.40
46356;DHT22;32066;49.474;11.106;2023-07-29T15:07:28;26.00;91.60
46356;DHT22;32066;49.474;11.106;2023-07-29T15:09:57;26.10;90.80
46356;DHT22;32066;49.474;11.106;2023-07-29T15:12:26;26.00;90.30
46356;DHT22;32066;49.474;11.106;2023-07-29T15:14:57;25.90;90.60
46356;DHT22;32066;49.474;11.106;2023-07-29T15:17:26;25.80;90.40
46356;DHT22;32066;49.474;11.106;2023-07-29T15:19:54;25.70;90.30
46356;DHT22;32066;49.474;11.106;2023-07-29T15:22:23;25.90;90.10
46356;DHT22;32066;49.474;11.106;2023-07-29T15:24:51;26.00;90.10
46356;DHT22;32066;49.474;11.106;2023-07-29T15:27:20;26.20;88.90
46356;DHT22;32066;49.474;11.106;2023-07-29T15:29:49;26.10;89.10
46356;DHT22;32066;49.474;11.106;2023-07-29T15:32:20;26.20;89.60